Time;durP1;ratioP1;P1;durP2;ratioP2;P2;SDS_P1;SDS_P2;PMS_P1;PMS_P2;Temp;Humidity;BMP_temperature;BMP_pressure;BME280_temperature;BME280_humidity;BME280_pressure;Samples;Min_cycle;Max_cycle;Signal;HPM_P1;HPM_P2
2024/01/26 00:02:21;;;;;;;1.70;1.60;;;;;;;14.20;58.01;98480.06;5070229;28;20423;-71
2024/01/26 00:04:46;;;;;;;1.77;1.67;;;;;;;14.15;58.26;98477.00;5079774;28;20162;-72
2024/01/26 00:07:12;;;;;;;1.57;1.47;;;;;;;14.14;57.57;98477.97;5087166;28;20211;-72
2024/01/26 00:09:37;;;;;;;1.43;1.33;;;;;;;14.11;58.18;98475.66;5093569;28;20256;-71
2024/01/26 00:12:03;;;;;;;1.63;1.53;;;;;;;14.01;58.46;98469.56;5077735;28;20223;-70
2024/01/26 00:14:28;;;;;;;1.60;1.50;;;;;;;14.02;58.71;98476.50;5096305;28;20206;-71
2024/01/26 00:16:54;;;;;;;2.43;1.40;;;;;;;14.07;58.33;98469.81;5090294;28;20201;-69
2024/01/26 00:19:19;;;;;;;1.97;1.53;;;;;;;13.94;58.73;98464.88;5084968;28;20774;-71
2024/01/26 00:21:45;;;;;;;1.63;1.40;;;;;;;13.98;58.49;98465.41;5091973;28;20173;-69
2024/01/26 00:24:11;;;;;;;2.23;1.60;;;;;;;13.97;58.38;98467.22;5091153;28;20162;-69
2024/01/26 00:26:36;;;;;;;1.50;1.27;;;;;;;14.03;58.24;98462.34;5083192;28;20170;-71
2024/01/26 00:29:01;;;;;;;1.33;1.23;;;;;;;14.08;57.82;98465.41;5077981;28;20244;-71
2024/01/26 00:31:27;;;;;;;1.30;1.20;;;;;;;14.08;57.91;98462.75;5091110;28;20234;-68
2024/01/26 00:33:52;;;;;;;1.93;1.63;;;;;;;14.03;57.98;98462.34;5073311;28;20246;-72
2024/01/26 00:36:18;;;;;;;1.30;1.20;;;;;;;14.01;57.99;98469.56;5093321;28;20273;-69
2024/01/26 00:38:43;;;;;;;1.50;1.40;;;;;;;13.96;57.98;98462.09;5094635;28;20230;-68
2024/01/26 00:41:10;;;;;;;1.40;1.10;;;;;;;13.96;57.80;98462.94;5096733;28;20661;-70
2024/01/26 00:43:36;;;;;;;1.63;1.10;;;;;;;13.88;58.19;98465.44;5086572;28;20648;-69
2024/01/26 00:46:03;;;;;;;1.30;1.17;;;;;;;13.94;58.24;98464.88;5085635;28;20416;-70
2024/01/26 00:48:29;;;;;;;1.20;1.10;;;;;;;13.95;58.20;98471.81;5087786;28;20438;-71
2024/01/26 00:50:55;;;;;;;1.10;1.00;;;;;;;13.97;57.82;98472.50;5101532;28;20888;-71
2024/01/26 00:53:21;;;;;;;1.30;1.20;;;;;;;13.99;57.70;98464.44;5087400;28;20180;-71
2024/01/26 00:55:47;;;;;;;1.10;0.90;;;;;;;13.96;57.75;98481.38;5087523;28;20178;-70
2024/01/26 00:58:12;;;;;;;2.13;1.47;;;;;;;13.97;57.78;98480.41;5093891;28;20443;-69
2024/01/26 01:00:38;;;;;;;1.30;1.10;;;;;;;13.94;57.43;98477.22;5087676;28;20909;-69
2024/01/26 01:03:04;;;;;;;1.80;1.50;;;;;;;13.94;57.77;98480.69;5080378;28;20285;-68
2024/01/26 01:05:30;;;;;;;1.40;1.30;;;;;;;13.97;57.36;98483.03;5099443;28;20499;-69
2024/01/26 01:07:55;;;;;;;2.03;1.10;;;;;;;13.96;57.56;98477.91;5087793;28;20225;-71
2024/01/26 01:10:21;;;;;;;1.60;1.23;;;;;;;13.95;57.06;98476.22;5097747;28;20557;-69
2024/01/26 01:12:46;;;;;;;1.10;1.00;;;;;;;13.97;57.64;98488.31;5089970;28;20277;-70
2024/01/26 01:15:12;;;;;;;1.67;1.10;;;;;;;13.96;57.37;98489.28;5091122;28;20241;-70
2024/01/26 01:17:41;;;;;;;1.10;0.97;;;;;;;13.97;57.65;98490.94;5083784;28;20280;-70
2024/01/26 01:20:10;;;;;;;1.20;1.10;;;;;;;13.93;57.45;98492.19;5095284;28;20174;-70
2024/01/26 01:22:37;;;;;;;1.30;1.10;;;;;;;13.94;57.51;98491.22;5086711;28;20412;-69
2024/01/26 01:25:04;;;;;;;1.30;1.00;;;;;;;13.94;57.72;98496.50;5082297;28;20475;-70
2024/01/26 01:27:31;;;;;;;1.30;1.10;;;;;;;13.97;57.67;98495.38;5090586;28;20542;-70
2024/01/26 01:29:56;;;;;;;1.53;0.90;;;;;;;13.94;57.92;98491.22;5091334;28;20447;-72
2024/01/26 01:32:22;;;;;;;1.37;1.27;;;;;;;13.86;58.07;98482.38;5085208;28;20526;-71
2024/01/26 01:34:47;;;;;;;2.17;1.90;;;;;;;13.90;58.11;98492.47;5087108;28;20190;-70
2024/01/26 01:37:12;;;;;;;7.30;3.63;;;;;;;13.90;57.90;98492.47;5090579;28;20269;-71
2024/01/26 01:39:38;;;;;;;2.80;1.43;;;;;;;13.92;57.99;98484.44;5095798;28;20295;-70
2024/01/26 01:42:04;;;;;;;1.40;1.30;;;;;;;13.88;58.06;98483.88;5093518;28;20548;-70
2024/01/26 01:44:30;;;;;;;1.40;1.30;;;;;;;13.91;58.03;98486.25;5082791;28;20166;-70
2024/01/26 01:46:56;;;;;;;1.83;1.10;;;;;;;13.84;58.23;98487.78;5090320;28;20846;-71
2024/01/26 01:49:22;;;;;;;1.30;1.20;;;;;;;13.84;58.26;98487.78;5091252;28;20443;-71
2024/01/26 01:51:48;;;;;;;1.87;1.13;;;;;;;13.89;58.11;98479.47;5090218;28;20257;-71
2024/01/26 01:54:15;;;;;;;1.17;1.07;;;;;;;13.76;58.28;98475.31;5071971;28;20475;-72
2024/01/26 01:56:42;;;;;;;2.10;1.47;;;;;;;13.81;58.59;98469.63;5072507;28;20412;-71
2024/01/26 01:59:08;;;;;;;1.63;1.10;;;;;;;13.83;58.55;98475.59;5094739;28;20794;-72
2024/01/26 02:01:33;;;;;;;5.00;1.00;;;;;;;13.86;58.06;98483.19;5098328;28;20420;-71
2024/01/26 02:04:02;;;;;;;1.10;1.00;;;;;;;13.90;58.22;98479.31;5094994;28;20856;-70
2024/01/26 02:06:28;;;;;;;1.70;1.20;;;;;;;13.88;57.88;98473.34;5072287;28;20170;-70
2024/01/26 02:08:53;;;;;;;1.83;1.00;;;;;;;13.92;58.09;98471.28;5090078;28;20440;-70
2024/01/26 02:11:18;;;;;;;1.77;1.10;;;;;;;13.89;57.91;98476.81;5093664;28;20693;-70
2024/01/26 02:13:44;;;;;;;1.40;1.10;;;;;;;13.88;58.01;98480.44;5096594;28;20714;-70
2024/01/26 02:16:09;;;;;;;1.00;0.90;;;;;;;13.83;57.97;98475.59;5089567;28;20194;-71
2024/01/26 02:18:35;;;;;;;1.20;1.00;;;;;;;13.89;57.95;98476.81;5091160;28;20293;-71
2024/01/26 02:21:00;;;;;;;1.27;1.10;;;;;;;13.93;57.67;98483.44;5098203;28;20198;-70
2024/01/26 02:23:26;;;;;;;1.80;1.00;;;;;;;13.92;57.57;98477.34;5094475;28;20300;-71
2024/01/26 02:25:51;;;;;;;1.40;1.10;;;;;;;13.86;57.63;98477.91;5084168;28;20260;-70
2024/01/26 02:28:17;;;;;;;1.17;1.07;;;;;;;13.72;58.23;98470.47;5077211;28;20197;-70
2024/01/26 02:30:42;;;;;;;1.10;1.00;;;;;;;13.71;57.89;98484.63;5097186;28;20597;-70
2024/01/26 02:33:08;;;;;;;2.33;1.23;;;;;;;13.63;58.38;98472.97;5071252;28;20181;-70
2024/01/26 02:35:33;;;;;;;1.20;1.07;;;;;;;13.65;58.26;98465.75;5089473;28;20335;-71
2024/01/26 02:37:59;;;;;;;1.30;0.87;;;;;;;13.65;58.27;98476.31;5097844;28;20216;-70
2024/01/26 02:40:24;;;;;;;1.00;0.90;;;;;;;13.63;58.35;98478.25;5100557;28;20217;-72
2024/01/26 02:42:50;;;;;;;1.10;1.00;;;;;;;13.65;58.23;98486.03;5095642;28;20180;-70
2024/01/26 02:45:15;;;;;;;1.93;1.00;;;;;;;13.69;58.08;98482.09;5090804;28;20615;-68
2024/01/26 02:47:41;;;;;;;1.13;0.90;;;;;;;13.60;58.24;98486.44;5097123;28;20217;-69
2024/01/26 02:50:07;;;;;;;1.67;0.90;;;;;;;13.54;58.03;98483.53;5093961;28;20282;-69
2024/01/26 02:52:32;;;;;;;0.90;0.80;;;;;;;13.49;57.94;98478.66;5085672;28;20176;-70
2024/01/26 02:54:57;;;;;;;2.80;1.00;;;;;;;13.43;58.03;98476.59;5084980;28;20845;-69
2024/01/26 02:57:23;;;;;;;1.30;0.80;;;;;;;13.44;58.74;98473.81;5089027;28;20243;-71
2024/01/26 02:59:49;;;;;;;2.20;0.83;;;;;;;13.49;58.60;98470.75;5071153;28;20209;-70
2024/01/26 03:02:14;;;;;;;1.00;0.80;;;;;;;13.49;58.86;98476.88;5089211;28;20174;-70
2024/01/26 03:04:41;;;;;;;1.30;1.20;;;;;;;13.56;58.73;98477.16;5071590;28;20181;-70
2024/01/26 03:07:06;;;;;;;2.30;1.00;;;;;;;13.58;58.41;98477.84;5088928;28;20770;-69
2024/01/26 03:09:32;;;;;;;1.30;0.90;;;;;;;13.52;58.21;98473.97;5093822;28;20422;-69
2024/01/26 03:11:57;;;;;;;1.20;1.03;;;;;;;13.55;58.08;98478.13;5089864;28;20183;-70
2024/01/26 03:14:22;;;;;;;2.80;1.00;;;;;;;13.55;57.80;98472.84;5085986;28;20286;-70
2024/01/26 03:16:48;;;;;;;2.93;1.30;;;;;;;13.54;58.00;98468.56;5088813;28;20214;-69
2024/01/26 03:19:13;;;;;;;1.30;1.10;;;;;;;13.43;58.50;98472.16;5088481;28;20197;-70
2024/01/26 03:21:45;;;;;;;1.93;1.03;;;;;;;13.44;58.01;98473.00;5092462;28;20210;-70
2024/01/26 03:24:11;;;;;;;2.07;1.10;;;;;;;13.44;58.21;98470.38;5090859;28;20235;-70
2024/01/26 03:26:37;;;;;;;1.40;1.20;;;;;;;13.40;58.37;98469.81;5085964;28;20838;-71
2024/01/26 03:29:03;;;;;;;1.43;1.00;;;;;;;13.28;58.89;98470.91;5090771;28;20223;-71
2024/01/26 03:31:29;;;;;;;1.10;0.90;;;;;;;13.27;58.96;98469.25;5092941;28;20186;-72
2024/01/26 03:33:55;;;;;;;2.17;1.00;;;;;;;13.24;59.21;98464.25;5082497;28;20448;-69
2024/01/26 03:36:21;;;;;;;1.40;1.10;;;;;;;13.19;59.17;98460.22;5095948;28;20557;-70
2024/01/26 03:38:46;;;;;;;4.43;1.30;;;;;;;13.24;59.16;98474.78;5096103;28;20439;-70
2024/01/26 03:41:12;;;;;;;1.83;1.20;;;;;;;13.18;59.37;98469.06;5091927;28;20228;-70
2024/01/26 03:43:37;;;;;;;3.13;1.20;;;;;;;13.25;59.44;98474.63;5087862;28;20173;-69
2024/01/26 03:46:03;;;;;;;2.10;1.30;;;;;;;13.20;59.18;98475.03;5088879;28;20269;-69
2024/01/26 03:48:28;;;;;;;1.40;1.30;;;;;;;13.25;59.36;98479.06;5087620;28;20685;-70
2024/01/26 03:50:54;;;;;;;1.20;1.10;;;;;;;13.34;59.10;98476.44;5098705;28;20229;-70
2024/01/26 03:53:19;;;;;;;1.60;1.07;;;;;;;13.41;58.73;98468.84;5089000;28;20277;-69
2024/01/26 03:55:45;;;;;;;3.73;1.17;;;;;;;13.43;58.84;98474.78;5070101;28;20823;-69
2024/01/26 03:58:10;;;;;;;5.87;1.50;;;;;;;13.43;58.71;98479.25;5095985;28;20791;-70
2024/01/26 04:00:35;;;;;;;2.40;1.20;;;;;;;13.47;58.89;98480.63;5095826;28;20608;-71
2024/01/26 04:03:01;;;;;;;1.40;1.10;;;;;;;13.52;58.73;98481.03;5088322;28;20177;-70
2024/01/26 04:05:27;;;;;;;2.30;1.30;;;;;;;13.48;58.54;98491.00;5087401;28;20184;-70
2024/01/26 04:07:52;;;;;;;1.17;0.93;;;;;;;13.47;58.76;98489.34;5091847;28;20224;-71
2024/01/26 04:10:18;;;;;;;1.27;1.17;;;;;;;13.50;58.83;98480.31;5066234;28;20182;-69
2024/01/26 04:12:43;;;;;;;2.53;1.30;;;;;;;13.45;58.57;98483.38;5080088;28;20211;-70
2024/01/26 04:15:09;;;;;;;1.70;1.20;;;;;;;13.40;58.75;98482.13;5089598;28;20354;-72
2024/01/26 04:17:34;;;;;;;1.20;1.10;;;;;;;13.39;58.86;98477.81;5088674;28;20276;-71
2024/01/26 04:20:00;;;;;;;1.77;1.30;;;;;;;13.35;58.93;98470.22;5094054;28;20267;-70
2024/01/26 04:22:25;;;;;;;1.40;1.23;;;;;;;13.32;59.27;98469.63;5092960;28;20280;-71
2024/01/26 04:24:51;;;;;;;2.80;1.33;;;;;;;13.30;59.29;98472.41;5080747;28;20186;-70
2024/01/26 04:27:16;;;;;;;1.07;0.90;;;;;;;13.30;59.04;98472.41;5083714;28;20268;-70
2024/01/26 04:29:42;;;;;;;2.30;1.40;;;;;;;13.29;59.07;98470.75;5055619;28;20265;-70
2024/01/26 04:32:07;;;;;;;1.60;1.33;;;;;;;13.33;59.30;98472.16;5072953;28;20266;-71
2024/01/26 04:34:32;;;;;;;1.40;1.30;;;;;;;13.36;58.95;98477.13;5069901;28;20249;-71
2024/01/26 04:36:58;;;;;;;1.40;1.30;;;;;;;13.35;59.01;98470.22;5070108;28;20295;-73
2024/01/26 04:39:23;;;;;;;7.13;1.33;;;;;;;13.31;58.78;98462.72;5070184;28;20268;-71
2024/01/26 04:41:49;;;;;;;1.30;1.20;;;;;;;13.28;58.96;98452.47;5073522;28;20217;-71
2024/01/26 04:44:14;;;;;;;1.50;1.20;;;;;;;13.34;58.93;98450.13;5076058;28;20213;-70
2024/01/26 04:46:40;;;;;;;1.50;1.27;;;;;;;13.34;58.91;98434.31;5073746;28;20291;-71
2024/01/26 04:49:05;;;;;;;1.50;1.40;;;;;;;13.36;58.89;98439.44;5068054;28;20205;-71
2024/01/26 04:51:30;;;;;;;1.53;1.43;;;;;;;13.35;58.71;98428.09;5075561;28;20500;-71
2024/01/26 04:53:56;;;;;;;2.80;1.20;;;;;;;13.39;58.64;98430.41;5067204;28;20201;-71
2024/01/26 04:56:21;;;;;;;2.70;1.50;;;;;;;13.45;58.73;98433.34;5088952;28;20185;-71
2024/01/26 04:58:47;;;;;;;3.00;1.33;;;;;;;13.43;58.25;98445.81;5075442;28;20204;-71
2024/01/26 05:01:12;;;;;;;1.27;1.17;;;;;;;13.39;58.38;98447.06;5064269;28;20182;-71
2024/01/26 05:03:38;;;;;;;3.03;1.50;;;;;;;13.42;58.54;98445.97;5082624;28;20182;-69
2024/01/26 05:06:04;;;;;;;1.47;1.03;;;;;;;13.44;58.16;98441.41;5086244;28;20179;-71
2024/01/26 05:08:29;;;;;;;2.17;1.07;;;;;;;13.46;58.30;98448.19;5073340;28;20670;-69
2024/01/26 05:10:55;;;;;;;1.20;1.07;;;;;;;13.48;57.70;98443.59;5097915;28;20276;-70
2024/01/26 05:13:20;;;;;;;1.20;1.10;;;;;;;13.35;58.10;98459.69;5090207;28;20189;-69
2024/01/26 05:15:46;;;;;;;2.57;1.20;;;;;;;13.34;58.00;98458.00;5086775;28;20198;-70
2024/01/26 05:18:11;;;;;;;2.60;1.37;;;;;;;13.34;58.29;98458.00;5090489;28;20196;-69
2024/01/26 05:20:37;;;;;;;1.40;1.30;;;;;;;13.26;58.46;98455.22;5079162;28;20177;-70
2024/01/26 05:23:02;;;;;;;1.90;1.20;;;;;;;13.33;58.44;98456.34;5090498;28;20205;-68
2024/01/26 05:25:28;;;;;;;2.23;1.20;;;;;;;13.32;58.76;98449.41;5086875;28;20190;-69
2024/01/26 05:27:53;;;;;;;1.97;1.10;;;;;;;13.30;58.80;98451.34;5073858;28;20322;-70
2024/01/26 05:30:19;;;;;;;2.43;1.20;;;;;;;13.39;58.74;98459.38;5086475;28;20274;-69
2024/01/26 05:32:44;;;;;;;1.20;1.10;;;;;;;13.25;58.69;98464.09;5084801;28;20215;-73
2024/01/26 05:35:10;;;;;;;1.60;1.10;;;;;;;13.24;58.94;98451.06;5079729;28;20732;-73
2024/01/26 05:37:35;;;;;;;1.93;1.50;;;;;;;13.22;58.86;98453.84;5075541;28;20229;-73
2024/01/26 05:40:06;;;;;;;2.80;1.30;;;;;;;13.11;59.34;98446.06;5079160;28;20179;-73
2024/01/26 05:42:31;;;;;;;1.50;1.40;;;;;;;13.03;59.52;98438.91;5084538;28;20178;-71
2024/01/26 05:44:56;;;;;;;1.13;1.00;;;;;;;13.05;59.73;98439.56;5079721;28;20417;-71
2024/01/26 05:47:22;;;;;;;4.07;1.20;;;;;;;13.05;59.26;98448.31;5080236;28;20198;-71
2024/01/26 05:49:50;;;;;;;1.53;1.20;;;;;;;13.16;59.36;98443.88;5077957;28;20287;-72
2024/01/26 05:52:16;;;;;;;2.37;1.30;;;;;;;13.19;59.11;98444.41;5084029;28;20205;-73
2024/01/26 05:54:41;;;;;;;1.60;1.13;;;;;;;13.01;59.21;98438.19;5089163;28;20486;-74
2024/01/26 05:57:06;;;;;;;1.70;1.27;;;;;;;13.06;59.29;98442.06;5070269;28;20186;-72
2024/01/26 05:59:32;;;;;;;1.83;1.30;;;;;;;13.01;59.15;98441.66;5091266;28;20256;-73
2024/01/26 06:01:57;;;;;;;1.40;1.10;;;;;;;13.01;59.24;98433.75;5084102;28;20287;-73
2024/01/26 06:04:23;;;;;;;1.43;1.23;;;;;;;12.94;59.22;98430.03;5086045;28;20173;-72
2024/01/26 06:06:49;;;;;;;10.73;1.30;;;;;;;12.79;59.64;98434.00;5049359;28;20218;-73
2024/01/26 06:09:15;;;;;;;1.70;1.20;;;;;;;12.78;59.94;98434.97;5063178;28;20516;-71
2024/01/26 06:11:43;;;;;;;1.40;1.30;;;;;;;12.79;59.81;98444.53;5095950;28;20193;-71
2024/01/26 06:14:08;;;;;;;2.70;1.30;;;;;;;12.76;59.59;98453.53;5083738;28;20456;-73
2024/01/26 06:16:34;;;;;;;2.07;1.20;;;;;;;12.86;59.53;98454.38;5089791;28;20811;-73
2024/01/26 06:18:59;;;;;;;3.10;1.03;;;;;;;12.91;59.38;98456.59;5076438;28;20198;-73
2024/01/26 06:21:24;;;;;;;1.97;1.20;;;;;;;12.73;59.77;98465.13;5084689;28;20181;-74
2024/01/26 06:23:50;;;;;;;1.77;1.00;;;;;;;12.78;59.45;98459.50;5084068;28;20327;-72
2024/01/26 06:26:16;;;;;;;1.83;1.13;;;;;;;12.60;59.92;98459.31;5084138;28;20256;-73
2024/01/26 06:28:41;;;;;;;1.43;1.23;;;;;;;12.83;59.44;98446.75;5086120;28;20224;-74
2024/01/26 06:31:06;;;;;;;1.40;1.30;;;;;;;12.85;59.38;98446.63;5061738;28;20178;-72
2024/01/26 06:33:32;;;;;;;2.70;1.23;;;;;;;12.65;60.45;98451.03;5072650;28;20193;-72
2024/01/26 06:35:58;;;;;;;1.80;1.30;;;;;;;12.77;60.05;98454.34;5080348;28;20801;-73
2024/01/26 06:38:23;;;;;;;2.00;1.20;;;;;;;12.82;59.91;98457.44;5093809;28;20218;-73
2024/01/26 06:40:49;;;;;;;2.60;1.10;;;;;;;12.90;59.35;98460.19;5089998;28;20661;-75
2024/01/26 06:43:16;;;;;;;1.87;1.23;;;;;;;12.84;59.50;98460.75;5085693;28;20569;-73
2024/01/26 06:45:42;;;;;;;2.07;1.13;;;;;;;12.93;59.61;98454.66;5074967;28;20171;-73
2024/01/26 06:48:08;;;;;;;1.63;1.20;;;;;;;12.94;59.64;98456.34;5071121;28;20452;-75
2024/01/26 06:50:34;;;;;;;1.87;1.10;;;;;;;12.79;59.53;98453.25;5087597;28;20537;-73
2024/01/26 06:52:59;;;;;;;2.43;1.33;;;;;;;12.96;59.15;98449.13;5094079;28;20182;-72
2024/01/26 06:55:25;;;;;;;1.20;1.10;;;;;;;12.94;59.54;98450.22;5078468;28;20546;-73
2024/01/26 06:57:50;;;;;;;2.80;1.27;;;;;;;13.03;59.46;98452.88;5089539;28;20217;-73
2024/01/26 07:00:16;;;;;;;1.40;1.13;;;;;;;13.04;59.30;98451.91;5067519;28;20675;-72
2024/01/26 07:02:42;;;;;;;5.33;1.10;;;;;;;13.14;58.92;98459.81;5086969;28;20805;-74
2024/01/26 07:05:08;;;;;;;3.20;1.20;;;;;;;13.14;58.88;98461.59;5076714;28;20178;-75
2024/01/26 07:07:33;;;;;;;1.97;1.27;;;;;;;13.09;58.89;98463.84;5082315;28;20271;-71
2024/01/26 07:09:58;;;;;;;2.90;1.10;;;;;;;13.12;58.68;98466.16;5082054;28;20555;-72
2024/01/26 07:12:24;;;;;;;1.27;1.03;;;;;;;13.15;58.76;98450.94;5062443;28;20182;-72
2024/01/26 07:14:49;;;;;;;3.43;1.07;;;;;;;13.14;58.58;98459.81;5085627;28;20212;-73
2024/01/26 07:17:15;;;;;;;1.30;1.20;;;;;;;13.18;58.61;98452.47;5073479;28;20181;-72
2024/01/26 07:19:40;;;;;;;1.60;0.90;;;;;;;13.24;58.28;98446.63;5086717;28;20268;-73
2024/01/26 07:22:05;;;;;;;1.67;1.30;;;;;;;13.27;58.24;98450.81;5095984;28;20625;-73
2024/01/26 07:24:31;;;;;;;1.50;1.23;;;;;;;13.29;58.27;98451.50;5086746;28;20194;-73
2024/01/26 07:26:56;;;;;;;3.43;1.23;;;;;;;13.32;58.28;98453.84;5080886;28;20190;-71
2024/01/26 07:29:22;;;;;;;2.30;1.37;;;;;;;13.28;58.10;98448.03;5083419;28;20285;-73
2024/01/26 07:31:47;;;;;;;3.03;1.20;;;;;;;13.36;57.96;98437.63;5092474;28;20181;-75
2024/01/26 07:34:13;;;;;;;1.33;1.20;;;;;;;13.38;58.00;98434.88;5089040;28;20202;-72
2024/01/26 07:36:39;;;;;;;2.63;1.50;;;;;;;13.43;58.09;98434.47;5084967;28;20660;-72
2024/01/26 07:39:07;;;;;;;2.70;1.40;;;;;;;13.28;58.21;98450.66;5088839;28;20193;-71
2024/01/26 07:41:33;;;;;;;2.13;1.60;;;;;;;13.43;58.16;98439.75;5097897;28;20701;-72
2024/01/26 07:44:00;;;;;;;1.70;1.30;;;;;;;13.39;57.98;98436.53;5093743;28;20506;-73
2024/01/26 07:46:25;;;;;;;2.90;1.30;;;;;;;13.33;58.01;98442.34;5102138;28;20178;-72
2024/01/26 07:48:50;;;;;;;1.90;1.10;;;;;;;13.32;58.23;98438.03;5089363;28;20950;-72
2024/01/26 07:51:16;;;;;;;1.47;1.30;;;;;;;13.36;58.17;98440.25;5096895;28;20176;-71
2024/01/26 07:53:42;;;;;;;2.70;1.30;;;;;;;13.53;57.98;98440.53;5096514;28;20712;-72
2024/01/26 07:56:07;;;;;;;2.50;1.10;;;;;;;13.66;57.84;98435.00;5073978;28;20262;-73
2024/01/26 07:58:32;;;;;;;5.53;1.20;;;;;;;13.80;57.72;98442.44;5095764;28;20251;-71
2024/01/26 08:00:58;;;;;;;1.50;1.10;;;;;;;13.92;57.32;98432.56;5089328;28;20555;-72
2024/01/26 08:03:23;;;;;;;1.57;1.20;;;;;;;13.91;56.83;98428.25;5088397;28;20203;-73
2024/01/26 08:05:49;;;;;;;1.93;1.10;;;;;;;14.14;56.46;98417.34;5079342;28;20252;-72
2024/01/26 08:08:14;;;;;;;1.30;1.00;;;;;;;14.21;56.06;98422.88;5045524;28;20671;-72
2024/01/26 08:10:40;;;;;;;2.60;1.30;;;;;;;13.97;56.06;98427.69;5090800;28;20272;-70
2024/01/26 08:13:05;;;;;;;1.10;0.97;;;;;;;14.15;55.90;98407.66;5079252;28;20203;-72
2024/01/26 08:15:31;;;;;;;1.83;1.30;;;;;;;14.26;55.96;98405.63;5086999;28;20304;-71
2024/01/26 08:17:56;;;;;;;1.10;1.00;;;;;;;14.34;55.91;98406.72;5095409;28;20210;-70
2024/01/26 08:20:22;;;;;;;1.07;0.97;;;;;;;14.52;55.78;98410.22;5078172;28;20288;-70
2024/01/26 08:22:47;;;;;;;2.03;1.40;;;;;;;14.70;55.15;98406.81;5074325;28;20181;-70
2024/01/26 08:25:13;;;;;;;2.50;1.10;;;;;;;14.52;54.45;98415.50;5084332;28;20178;-72
2024/01/26 08:27:38;;;;;;;1.40;1.30;;;;;;;14.67;54.72;98417.63;5087439;28;20212;-71
2024/01/26 08:30:04;;;;;;;1.87;1.20;;;;;;;14.68;54.53;98417.50;5091597;28;20182;-73
2024/01/26 08:32:30;;;;;;;2.80;1.20;;;;;;;14.58;54.41;98422.81;5087513;28;20204;-72
2024/01/26 08:34:56;;;;;;;5.30;1.40;;;;;;;14.58;54.58;98411.44;5059851;28;20451;-70
2024/01/26 08:37:21;;;;;;;2.27;1.07;;;;;;;14.65;54.66;98403.75;5088980;28;20182;-70
2024/01/26 08:39:47;;;;;;;1.97;1.20;;;;;;;14.66;54.12;98398.34;5088310;28;20654;-70
2024/01/26 08:42:12;;;;;;;2.50;1.23;;;;;;;14.57;54.58;98392.16;5096637;28;20265;-72
2024/01/26 08:44:38;;;;;;;1.60;1.50;;;;;;;14.68;54.65;98387.66;5076954;28;20204;-72
2024/01/26 08:47:04;;;;;;;1.77;1.20;;;;;;;14.68;54.53;98382.38;5086703;28;20188;-72
2024/01/26 08:49:29;;;;;;;3.17;1.50;;;;;;;14.65;54.77;98372.09;5093276;28;20919;-71
2024/01/26 08:51:57;;;;;;;1.90;1.40;;;;;;;14.70;54.63;98368.06;5075378;28;20203;-70
2024/01/26 08:54:26;;;;;;;3.50;1.83;;;;;;;14.78;54.47;98356.75;5098831;28;20875;-70
2024/01/26 08:56:52;;;;;;;2.30;1.40;;;;;;;14.80;54.49;98364.53;5087808;28;20871;-73
2024/01/26 08:59:18;;;;;;;2.60;1.90;;;;;;;14.75;54.58;98351.75;5081763;28;20806;-74
2024/01/26 09:01:43;;;;;;;1.20;1.10;;;;;;;14.72;54.42;98354.72;5074051;28;20427;-71
2024/01/26 09:04:09;;;;;;;2.70;1.60;;;;;;;14.80;54.39;98349.50;5077887;28;20260;-73
2024/01/26 09:06:35;;;;;;;1.87;1.73;;;;;;;14.93;54.13;98343.03;5071476;28;20179;-74
2024/01/26 09:09:01;;;;;;;2.43;1.60;;;;;;;14.97;54.05;98339.09;5052715;28;20216;-73
2024/01/26 09:11:26;;;;;;;1.67;1.47;;;;;;;14.92;54.03;98333.44;5057060;28;20412;-74
2024/01/26 09:13:52;;;;;;;2.30;1.33;;;;;;;14.99;54.02;98339.78;5082031;28;20470;-73
2024/01/26 09:16:17;;;;;;;1.47;1.37;;;;;;;14.92;54.08;98321.09;5073198;28;20738;-72
2024/01/26 09:18:43;;;;;;;1.60;1.33;;;;;;;14.83;54.06;98319.34;5075207;28;20193;-72
2024/01/26 09:21:11;;;;;;;1.93;1.30;;;;;;;14.94;53.88;98319.09;5069862;28;20281;-73
2024/01/26 09:23:37;;;;;;;2.17;1.00;;;;;;;14.80;54.00;98324.94;5075562;28;20298;-73
2024/01/26 09:26:03;;;;;;;1.57;1.13;;;;;;;14.93;53.93;98322.75;5082961;28;20799;-73
2024/01/26 09:28:28;;;;;;;2.53;1.37;;;;;;;14.93;53.78;98317.47;5087863;28;20435;-72
2024/01/26 09:30:54;;;;;;;3.00;1.30;;;;;;;14.96;53.64;98326.88;5076163;28;20205;-72
2024/01/26 09:33:20;;;;;;;1.33;1.23;;;;;;;14.84;53.95;98324.47;5087570;28;20213;-72
2024/01/26 09:35:45;;;;;;;1.30;1.20;;;;;;;14.98;53.65;98325.75;5058401;28;20210;-72
2024/01/26 09:38:11;;;;;;;4.03;1.20;;;;;;;14.87;53.88;98334.72;5076755;28;20277;-73
2024/01/26 09:40:36;;;;;;;2.10;1.10;;;;;;;14.84;53.87;98329.75;5091143;28;20176;-74
2024/01/26 09:43:02;;;;;;;2.50;1.30;;;;;;;14.95;53.93;98330.50;5093727;28;20189;-73
2024/01/26 09:45:27;;;;;;;1.83;1.53;;;;;;;14.99;53.79;98331.88;5065673;28;20181;-74
2024/01/26 09:47:53;;;;;;;1.90;1.20;;;;;;;14.93;53.88;98327.19;5081436;28;20298;-73
2024/01/26 09:50:23;;;;;;;1.50;1.33;;;;;;;14.94;53.95;98331.47;5086659;28;20653;-74
2024/01/26 09:52:50;;;;;;;1.80;1.40;;;;;;;14.85;54.01;98331.41;5074021;28;20432;-74
2024/01/26 09:55:16;;;;;;;1.50;1.20;;;;;;;14.79;54.20;98329.38;5088295;28;20465;-73
2024/01/26 09:57:45;;;;;;;2.03;1.10;;;;;;;14.76;54.28;98334.94;5066679;28;20433;-73
2024/01/26 10:00:11;;;;;;;2.60;1.30;;;;;;;14.86;54.12;98333.09;5076261;28;20962;-74
2024/01/26 10:02:37;;;;;;;2.33;1.60;;;;;;;14.88;53.95;98340.84;5082589;28;20917;-72
2024/01/26 10:05:03;;;;;;;1.60;1.20;;;;;;;14.88;53.93;98330.28;5078825;28;20425;-72
2024/01/26 10:07:28;;;;;;;1.57;1.23;;;;;;;14.81;54.18;98330.06;5081316;28;20323;-73
2024/01/26 10:09:54;;;;;;;1.20;1.10;;;;;;;14.73;54.21;98332.63;5076825;28;20189;-73
2024/01/26 10:12:22;;;;;;;2.37;1.80;;;;;;;14.80;54.15;98333.69;5088244;28;20382;-73
2024/01/26 10:14:49;;;;;;;3.90;1.97;;;;;;;14.72;54.39;98339.72;5066542;28;20448;-74
2024/01/26 10:17:20;;;;;;;1.47;1.23;;;;;;;14.88;54.00;98341.66;5086764;28;20418;-73
2024/01/26 10:19:45;;;;;;;2.13;1.70;;;;;;;14.70;54.38;98332.94;5091450;28;20847;-74
2024/01/26 10:22:11;;;;;;;1.57;1.47;;;;;;;14.80;54.37;98331.03;5084296;28;20425;-72
2024/01/26 10:24:36;;;;;;;2.90;1.80;;;;;;;14.85;54.23;98323.50;5078074;28;20179;-72
2024/01/26 10:27:02;;;;;;;2.00;1.57;;;;;;;14.89;54.27;98322.19;5065870;28;20212;-72
2024/01/26 10:29:27;;;;;;;2.60;1.80;;;;;;;14.82;54.34;98320.31;5082218;28;20197;-72
2024/01/26 10:31:53;;;;;;;2.70;1.83;;;;;;;14.75;54.40;98325.38;5076873;28;20274;-72
2024/01/26 10:34:19;;;;;;;1.53;1.40;;;;;;;14.85;54.20;98326.16;5084535;28;20199;-71
2024/01/26 10:36:46;;;;;;;1.87;1.40;;;;;;;14.98;54.00;98328.38;5074948;28;20190;-72
2024/01/26 10:39:31;;;;;;;1.80;1.40;;;;;;;14.98;53.92;98315.19;5082575;28;20225;-72
2024/01/26 10:42:03;;;;;;;1.63;1.53;;;;;;;14.88;54.11;98314.44;5064337;28;20432;-72
2024/01/26 10:44:29;;;;;;;1.50;1.40;;;;;;;14.94;54.00;98323.56;5087845;28;20506;-72
2024/01/26 10:46:56;;;;;;;2.23;1.30;;;;;;;14.87;54.04;98321.53;5078810;28;20490;-72
2024/01/26 10:49:23;;;;;;;2.67;1.43;;;;;;;14.93;53.86;98332.47;5060466;28;20949;-71
2024/01/26 10:51:50;;;;;;;2.40;1.53;;;;;;;14.99;53.94;98322.13;5064685;28;20431;-72
2024/01/26 10:54:17;;;;;;;1.70;1.60;;;;;;;15.06;53.99;98317.06;5054194;28;20453;-74
2024/01/26 10:56:42;;;;;;;1.83;1.50;;;;;;;15.04;53.86;98308.47;5070728;28;20454;-74
2024/01/26 10:59:10;;;;;;;1.37;1.27;;;;;;;15.12;53.71;98311.16;5098596;28;20443;-73
2024/01/26 11:01:36;;;;;;;2.10;1.40;;;;;;;15.20;53.60;98297.16;5064171;28;20586;-73
2024/01/26 11:04:02;;;;;;;1.40;1.30;;;;;;;14.93;54.16;98299.00;5079984;28;20459;-73
2024/01/26 11:06:28;;;;;;;1.83;1.40;;;;;;;15.15;53.70;98294.19;5082546;28;20443;-74
2024/01/26 11:08:59;;;;;;;1.50;1.37;;;;;;;15.05;53.99;98284.56;5080220;28;20282;-72
2024/01/26 11:11:29;;;;;;;2.60;1.10;;;;;;;15.17;53.75;98282.47;5054355;28;20421;-72
2024/01/26 11:13:59;;;;;;;2.00;1.70;;;;;;;15.19;53.85;98279.66;5069701;28;20952;-73
2024/01/26 11:16:25;;;;;;;2.80;1.30;;;;;;;15.05;54.19;98289.84;5073930;28;20523;-72
2024/01/26 11:18:59;;;;;;;3.10;1.33;;;;;;;15.13;54.19;98281.13;5061733;28;20498;-73
2024/01/26 11:21:25;;;;;;;2.03;1.33;;;;;;;15.18;53.66;98275.41;5084002;28;20448;-72
2024/01/26 11:23:50;;;;;;;3.90;1.30;;;;;;;15.20;54.09;98270.75;5084517;28;20449;-73
2024/01/26 11:26:17;;;;;;;2.87;1.20;;;;;;;15.17;54.20;98266.63;5080402;28;20214;-74
2024/01/26 11:28:45;;;;;;;3.03;1.30;;;;;;;15.19;54.26;98277.88;5089402;28;20202;-72